Terminal Aerodrome Forecast
Issued by NWS

Home | Current Version | Previous Version | Text Only | Print | Product List | Glossary On
Versions: 1 2 3 4 5 6 7 8 9 10 11 12 13 14 15 16 17 18
000
FTUS45 KBOU 182322
TAFBJC
TAF
KBJC 182322Z 1900/1924 14006KT P6SM SCT220
     FM190300 28006KT P6SM FEW220
     FM191400 VRB05KT P6SM FEW120 BKN220
     FM191800 02007KT P6SM FEW100 SCT220=

USA.gov is the U.S. government's official web portal to all federal, state and local government web resources and services.